Mincy, Missouri
Current Conditions -  °F | °C
As of 5:35 AM on Friday 28 Nov 2014 (Local Time) from KBBG Reporting Station
Clear Clear  
Wind Chill: 26°   Ceiling: Unl
Heat Index: 34°   Visibility: 10mi
Dew Point: 25°   Wind: 9mph
Humidity: 70%   Direction: 160°SSE
Pressure: 30.22"   Gusts: NA
Location:  36.5876°N, 93.1264°W
Report Text: KBBG 281135Z AUTO 16008KT 10SM CLR 01/M04 A3022 RMK AO2
Loading
Personal Weather Stations






























Interactive Weather Map New forecast layout! Learn more

10-Day Weather Forecast

Advertisements
Track Severe Weather on mobile